POGODA: Poland

Lotnisko: Katowice-Pyrzowice

METAR KOD: EPKT


METAR: EPKT 171500Z 05009KT CAVOK 11/M00 Q1020


BLOK
Pogoda METAR
171500Z
Dzien: 17, Godzina: 15:00 UTC.
05009KT
Wiatr z kierunku 050, o predkosci 17 km/h
CAVOK
Widzialnosc pow. 10 km, brak chmur pon. 1500 m., brak CB, brak opadow, burz i innych
11/M00
Temperatura: powietrze 11°C, punkt rosy 0°C
Q1020
Cisnienie: 1020 hPa

Pogoda na innym lotnisku

Pogoda Gdansk-Rebiechowo WEATHER Poland  
Pogoda Katowice WEATHER Poland  
Pogoda Krakow WEATHER Poland  
Pogoda Poznan WEATHER Poland  
Pogoda Rzeszow-Jasionka WEATHER Poland  
Pogoda Szczecin WEATHER Poland  
Pogoda Warszawa-Okecie WEATHER Poland  
Pogoda Wroclaw Ii WEATHER Poland  

Pogoda w inny kraju

Strona startowa

(C) by GREGOR 2007
Ogłoszenia Towarzyskie